Time;durP1;ratioP1;P1;durP2;ratioP2;P2;SDS_P1;SDS_P2;PMS_P1;PMS_P2;Temp;Humidity;BMP_temperature;BMP_pressure;BME280_temperature;BME280_humidity;BME280_pressure;Samples;Min_cycle;Max_cycle;Signal;HPM_P1;HPM_P2
2023/04/30 00:02:11;;;;;;;6.32;3.20;;;10.40;99.90;;;;;;5039969;28;20045;-57
2023/04/30 00:04:37;;;;;;;6.93;3.63;;;10.40;99.90;;;;;;5039307;28;20042;-57
2023/04/30 00:07:03;;;;;;;5.20;3.30;;;10.30;99.90;;;;;;5040500;28;20073;-57
2023/04/30 00:09:29;;;;;;;6.93;3.10;;;10.30;99.90;;;;;;5021612;28;20106;-59
2023/04/30 00:11:55;;;;;;;5.13;3.17;;;10.20;99.90;;;;;;5039793;28;20037;-59
2023/04/30 00:14:20;;;;;;;6.30;3.03;;;10.20;99.90;;;;;;5039199;28;20052;-58
2023/04/30 00:16:46;;;;;;;5.65;3.38;;;10.20;99.90;;;;;;5021179;28;20052;-57
2023/04/30 00:19:12;;;;;;;6.80;3.25;;;10.10;99.90;;;;;;5039592;28;20053;-57
2023/04/30 00:21:37;;;;;;;5.53;3.28;;;10.10;99.90;;;;;;5038855;28;20053;-57
2023/04/30 00:24:03;;;;;;;5.25;3.47;;;10.00;99.90;;;;;;5039474;28;20060;-57
2023/04/30 00:26:29;;;;;;;4.00;3.03;;;9.90;99.90;;;;;;5039381;28;20050;-57
2023/04/30 00:28:55;;;;;;;5.45;3.22;;;9.90;99.90;;;;;;5039606;28;20049;-57
2023/04/30 00:31:20;;;;;;;5.78;3.45;;;9.90;99.90;;;;;;5039346;28;20042;-57
2023/04/30 00:33:46;;;;;;;9.05;3.55;;;9.80;99.90;;;;;;5020939;28;20057;-58
2023/04/30 00:36:11;;;;;;;6.90;3.78;;;9.80;99.90;;;;;;5039521;28;20041;-57
2023/04/30 00:38:38;;;;;;;5.03;3.17;;;9.80;99.90;;;;;;5020961;28;20042;-57
2023/04/30 00:41:04;;;;;;;4.88;3.10;;;9.80;99.90;;;;;;5039507;28;20103;-58
2023/04/30 00:43:30;;;;;;;6.57;3.75;;;9.70;99.90;;;;;;5020856;28;20046;-57
2023/04/30 00:45:57;;;;;;;8.82;4.00;;;9.60;99.90;;;;;;5039600;28;20444;-58
2023/04/30 00:48:25;;;;;;;9.18;3.80;;;9.60;99.90;;;;;;5039386;28;20053;-57
2023/04/30 00:50:51;;;;;;;10.93;3.88;;;9.60;99.90;;;;;;5038603;28;20045;-58
2023/04/30 00:53:16;;;;;;;9.55;3.88;;;9.50;99.90;;;;;;5038940;28;20049;-58
2023/04/30 00:55:43;;;;;;;9.63;4.30;;;9.50;99.90;;;;;;5020727;28;20037;-57
2023/04/30 00:58:08;;;;;;;8.35;3.88;;;9.50;99.90;;;;;;5039304;28;20052;-57
2023/04/30 01:00:34;;;;;;;11.65;4.05;;;9.40;99.90;;;;;;5038400;28;20041;-57
2023/04/30 01:03:00;;;;;;;8.05;4.03;;;9.40;99.90;;;;;;5039531;28;20045;-58
2023/04/30 01:05:26;;;;;;;10.65;3.78;;;9.30;99.90;;;;;;5038999;28;20072;-58
2023/04/30 01:07:54;;;;;;;10.88;4.07;;;9.30;99.90;;;;;;5038610;28;20041;-58
2023/04/30 01:10:24;;;;;;;8.02;4.13;;;9.20;99.90;;;;;;5038903;28;20068;-57
2023/04/30 01:13:21;;;;;;;8.65;3.92;;;9.20;99.90;;;;;;5038176;28;20042;-57
2023/04/30 01:15:53;;;;;;;;;;;9.10;99.90;;;;;;5021083;28;20132;-57
2023/04/30 01:18:28;;;;;;;10.50;4.15;;;9.00;99.90;;;;;;5038853;28;19925;-57
2023/04/30 01:21:02;;;;;;;7.75;4.13;;;9.00;99.90;;;;;;5038167;28;20046;-58
2023/04/30 01:23:31;;;;;;;14.55;4.28;;;9.00;99.90;;;;;;5038715;28;20049;-57
2023/04/30 01:26:23;;;;;;;10.13;4.20;;;8.90;99.90;;;;;;5038049;28;20119;-57
2023/04/30 01:28:52;;;;;;;13.48;4.68;;;8.90;99.90;;;;;;5038754;28;20053;-57
2023/04/30 01:31:18;;;;;;;12.88;4.55;;;8.80;99.90;;;;;;5038548;28;20052;-57
2023/04/30 01:33:44;;;;;;;12.98;4.60;;;8.80;99.90;;;;;;5037933;28;20041;-57
2023/04/30 01:36:23;;;;;;;12.48;4.80;;;8.70;99.90;;;;;;5020825;28;20072;-58
2023/04/30 01:38:55;;;;;;;10.73;4.45;;;8.70;99.90;;;;;;5020472;28;20049;-58
2023/04/30 01:41:44;;;;;;;9.75;4.57;;;8.60;99.90;;;;;;5039250;28;20049;-57
2023/04/30 01:44:13;;;;;;;11.80;4.70;;;8.60;99.90;;;;;;5020514;28;20129;-58
2023/04/30 01:46:41;;;;;;;11.63;4.95;;;8.50;99.90;;;;;;5038066;28;20071;-59
2023/04/30 01:49:14;;;;;;;12.80;4.95;;;8.40;99.90;;;;;;5038674;28;20481;-59
2023/04/30 01:51:42;;;;;;;10.95;5.20;;;8.50;99.90;;;;;;5037796;28;20075;-57
2023/04/30 01:54:32;;;;;;;12.98;5.78;;;8.40;99.90;;;;;;5038801;28;20075;-58
2023/04/30 01:57:05;;;;;;;13.18;4.97;;;8.40;99.90;;;;;;5005499;28;20042;-57
2023/04/30 01:59:37;;;;;;;13.82;4.90;;;8.30;99.90;;;;;;5037843;28;20077;-58
2023/04/30 02:02:03;;;;;;;11.63;5.03;;;8.10;99.90;;;;;;5038152;28;20109;-58
2023/04/30 02:04:28;;;;;;;13.05;4.70;;;8.20;99.90;;;;;;5037766;28;20072;-57
2023/04/30 02:06:54;;;;;;;11.55;4.65;;;8.10;99.90;;;;;;5038933;28;20044;-57
2023/04/30 02:09:22;;;;;;;10.35;4.80;;;8.10;99.90;;;;;;5038077;28;20119;-57
2023/04/30 02:11:48;;;;;;;14.40;4.88;;;8.10;99.90;;;;;;5038428;28;20095;-57
2023/04/30 02:14:14;;;;;;;12.90;5.22;;;8.10;99.90;;;;;;5037738;28;20081;-59
2023/04/30 02:16:40;;;;;;;10.82;4.68;;;8.00;99.90;;;;;;5037558;28;20076;-57
2023/04/30 02:19:05;;;;;;;8.82;4.22;;;8.00;99.90;;;;;;5038308;28;20044;-58
2023/04/30 02:21:31;;;;;;;11.70;4.32;;;8.00;99.90;;;;;;5037822;28;20100;-56
2023/04/30 02:23:57;;;;;;;8.95;4.32;;;7.90;99.90;;;;;;5041803;28;20049;-56
2023/04/30 02:26:23;;;;;;;12.20;4.60;;;7.90;99.90;;;;;;5041540;28;20049;-56
2023/04/30 02:28:48;;;;;;;14.73;4.70;;;7.90;99.90;;;;;;5024038;28;20414;-58
2023/04/30 02:31:14;;;;;;;8.45;4.30;;;7.80;99.90;;;;;;5041221;28;20105;-58
2023/04/30 02:33:40;;;;;;;11.48;4.88;;;7.80;99.90;;;;;;5040930;28;20046;-57
2023/04/30 02:36:05;;;;;;;10.13;4.88;;;7.80;99.90;;;;;;5041502;28;20125;-57
2023/04/30 02:38:31;;;;;;;13.75;4.93;;;7.80;99.90;;;;;;5041163;28;20044;-57
2023/04/30 02:40:57;;;;;;;10.88;5.18;;;7.70;99.90;;;;;;5041742;28;20073;-57
2023/04/30 02:43:22;;;;;;;9.98;4.93;;;7.70;99.90;;;;;;5040842;28;20038;-57
2023/04/30 02:45:48;;;;;;;8.38;5.63;;;7.80;99.90;;;;;;5041893;28;20041;-58
2023/04/30 02:48:14;;;;;;;21.45;5.72;;;7.60;99.90;;;;;;5023916;28;20088;-57
2023/04/30 02:50:40;;;;;;;10.90;5.28;;;7.60;99.90;;;;;;5040947;28;20048;-59
2023/04/30 02:53:05;;;;;;;10.10;5.13;;;7.60;99.90;;;;;;5041334;28;20033;-57
2023/04/30 02:55:31;;;;;;;10.57;4.95;;;7.50;99.90;;;;;;5040735;28;20121;-58
2023/04/30 02:57:57;;;;;;;14.15;5.60;;;7.50;99.90;;;;;;5041613;28;20071;-56
2023/04/30 03:00:23;;;;;;;14.00;5.53;;;7.50;99.90;;;;;;5040387;28;20045;-57
2023/04/30 03:02:48;;;;;;;12.35;5.65;;;7.40;99.90;;;;;;5041733;28;20041;-57
2023/04/30 03:05:17;;;;;;;13.63;5.50;;;7.40;99.90;;;;;;5041102;28;20050;-58
2023/04/30 03:07:42;;;;;;;13.25;5.35;;;7.40;99.90;;;;;;5041182;28;20053;-57
2023/04/30 03:10:09;;;;;;;14.73;5.95;;;7.30;99.90;;;;;;5040967;28;20049;-57
2023/04/30 03:12:34;;;;;;;12.65;6.05;;;7.30;99.90;;;;;;5040429;28;20041;-57
2023/04/30 03:15:00;;;;;;;13.13;5.25;;;7.30;99.90;;;;;;5040731;28;20666;-57
2023/04/30 03:17:26;;;;;;;12.20;6.05;;;7.30;99.90;;;;;;5022698;28;20374;-58
2023/04/30 03:19:51;;;;;;;14.45;6.32;;;7.20;99.90;;;;;;5041286;28;20037;-57
2023/04/30 03:22:22;;;;;;;18.17;6.50;;;7.20;99.90;;;;;;5040427;28;20046;-56
2023/04/30 03:24:48;;;;;;;13.70;6.13;;;7.10;99.90;;;;;;5040717;28;20051;-58
2023/04/30 03:27:15;;;;;;;11.50;6.00;;;7.10;99.90;;;;;;5022920;28;20049;-57
2023/04/30 03:29:41;;;;;;;12.50;6.60;;;7.00;99.90;;;;;;5022100;28;20046;-57
2023/04/30 03:32:07;;;;;;;12.07;6.40;;;7.00;99.90;;;;;;5040602;28;20547;-57
2023/04/30 03:34:32;;;;;;;13.00;6.05;;;7.00;99.90;;;;;;5038754;28;20076;-57
2023/04/30 03:37:00;;;;;;;11.00;5.97;;;7.90;99.90;;;;;;5040973;28;20049;-57
2023/04/30 03:39:26;;;;;;;10.25;5.90;;;6.90;99.90;;;;;;5040432;28;20083;-57
2023/04/30 03:41:52;;;;;;;14.43;5.65;;;6.80;99.90;;;;;;5040250;28;20041;-57
2023/04/30 03:44:17;;;;;;;14.13;6.15;;;6.80;99.90;;;;;;5022176;28;20049;-58
2023/04/30 03:46:43;;;;;;;12.70;6.05;;;6.80;99.90;;;;;;5039637;28;20092;-57
2023/04/30 03:49:10;;;;;;;19.67;6.60;;;6.80;99.90;;;;;;5040348;28;20045;-58
2023/04/30 03:51:38;;;;;;;12.57;6.50;;;6.80;99.90;;;;;;5039555;28;20137;-57
2023/04/30 03:54:07;;;;;;;11.02;5.70;;;6.80;99.90;;;;;;5040481;28;20041;-56
2023/04/30 03:56:35;;;;;;;9.93;6.13;;;6.70;99.90;;;;;;5040043;28;20428;-58
2023/04/30 03:59:00;;;;;;;13.70;6.32;;;5.80;99.90;;;;;;5040085;28;20041;-57
2023/04/30 04:01:27;;;;;;;9.93;6.35;;;6.70;99.90;;;;;;5039939;28;20111;-57
2023/04/30 04:03:53;;;;;;;11.88;6.25;;;6.70;99.90;;;;;;5039277;28;20501;-58
2023/04/30 04:06:19;;;;;;;8.93;6.35;;;6.70;99.90;;;;;;5039963;28;20057;-57
2023/04/30 04:08:45;;;;;;;15.00;6.43;;;6.60;99.90;;;;;;5039637;28;20037;-57
2023/04/30 04:11:11;;;;;;;10.95;6.70;;;6.60;99.90;;;;;;5040189;28;20079;-58
2023/04/30 04:13:37;;;;;;;15.57;6.82;;;6.50;99.90;;;;;;5021425;28;20049;-58
2023/04/30 04:16:03;;;;;;;11.25;6.55;;;6.50;99.90;;;;;;5039937;28;20045;-57
2023/04/30 04:18:29;;;;;;;16.90;7.22;;;6.50;99.90;;;;;;5040022;28;20046;-58
2023/04/30 04:20:55;;;;;;;12.02;6.47;;;6.50;99.90;;;;;;5038978;28;20073;-57
2023/04/30 04:23:21;;;;;;;12.25;7.18;;;5.70;99.90;;;;;;5039435;28;20037;-57
2023/04/30 04:25:51;;;;;;;14.45;6.38;;;6.40;99.90;;;;;;5038959;28;20057;-57
2023/04/30 04:28:17;;;;;;;15.10;6.97;;;6.30;99.90;;;;;;5040022;28;20052;-57
2023/04/30 04:30:42;;;;;;;15.57;6.80;;;6.30;99.90;;;;;;5038941;28;20041;-58
2023/04/30 04:33:09;;;;;;;12.90;7.05;;;6.30;99.90;;;;;;5039571;28;20044;-55
2023/04/30 04:35:35;;;;;;;11.02;6.15;;;6.30;99.90;;;;;;5039500;28;20087;-58
2023/04/30 04:38:01;;;;;;;12.57;6.78;;;6.30;99.90;;;;;;5038836;28;20041;-57
2023/04/30 04:40:27;;;;;;;11.07;6.68;;;6.30;99.90;;;;;;5039204;28;20093;-58
2023/04/30 04:42:54;;;;;;;23.25;6.93;;;6.30;99.90;;;;;;5038822;28;20033;-58
2023/04/30 04:45:20;;;;;;;9.68;5.90;;;6.30;99.90;;;;;;5038878;28;20041;-58
2023/04/30 04:47:46;;;;;;;9.38;6.35;;;6.30;99.90;;;;;;5021439;28;20132;-57
2023/04/30 04:50:11;;;;;;;13.45;6.35;;;6.30;99.90;;;;;;5039509;28;20037;-56
2023/04/30 04:52:38;;;;;;;12.98;6.07;;;6.30;99.90;;;;;;5039152;28;20047;-58
2023/04/30 04:55:04;;;;;;;9.65;5.88;;;6.30;99.90;;;;;;5038640;28;20101;-57
2023/04/30 04:57:30;;;;;;;12.05;6.45;;;6.30;99.90;;;;;;5039167;28;20045;-57
2023/04/30 04:59:56;;;;;;;11.40;6.65;;;6.30;99.90;;;;;;5020653;28;20079;-57
2023/04/30 05:02:22;;;;;;;15.82;6.63;;;6.30;99.90;;;;;;5039005;28;20044;-58
2023/04/30 05:04:49;;;;;;;11.20;6.00;;;6.20;99.90;;;;;;5020664;28;20058;-57
2023/04/30 05:07:18;;;;;;;13.32;5.32;;;6.20;99.90;;;;;;5039086;28;20038;-57
2023/04/30 05:09:48;;;;;;;11.52;5.75;;;6.20;99.90;;;;;;5038894;28;20099;-58
2023/04/30 05:12:14;;;;;;;10.98;5.40;;;6.20;99.90;;;;;;5020448;28;20500;-57
2023/04/30 05:14:40;;;;;;;10.15;5.32;;;6.20;99.90;;;;;;5038654;28;20393;-58
2023/04/30 05:17:06;;;;;;;9.60;5.60;;;6.30;99.90;;;;;;5038246;28;20077;-57
2023/04/30 05:19:32;;;;;;;15.40;6.55;;;6.20;99.90;;;;;;5039118;28;20673;-57
2023/04/30 05:21:59;;;;;;;12.18;6.35;;;6.30;99.90;;;;;;5020314;28;20071;-57
2023/04/30 05:24:24;;;;;;;11.88;6.47;;;6.40;99.90;;;;;;5038896;28;20113;-58
2023/04/30 05:26:50;;;;;;;13.98;6.93;;;6.40;99.90;;;;;;5038989;28;20045;-57
2023/04/30 05:29:16;;;;;;;12.27;6.55;;;6.40;99.90;;;;;;5038348;28;20065;-57
2023/04/30 05:31:41;;;;;;;14.88;6.47;;;6.40;99.90;;;;;;5038698;28;20101;-57
2023/04/30 05:34:07;;;;;;;9.68;6.10;;;6.40;99.90;;;;;;5038072;28;20064;-58
2023/04/30 05:36:33;;;;;;;13.70;6.22;;;6.40;99.90;;;;;;5021051;28;20049;-57
2023/04/30 05:38:58;;;;;;;10.50;5.72;;;6.50;99.90;;;;;;5038169;28;20076;-56
2023/04/30 05:41:24;;;;;;;12.00;6.72;;;6.70;99.90;;;;;;5038866;28;20060;-56
2023/04/30 05:43:50;;;;;;;14.20;6.65;;;6.60;99.90;;;;;;5038464;28;20096;-57
2023/04/30 05:46:16;;;;;;;14.90;6.47;;;6.60;99.90;;;;;;5038388;28;20060;-57
2023/04/30 05:48:41;;;;;;;12.10;5.75;;;6.70;99.90;;;;;;5038461;28;20038;-58
2023/04/30 05:51:07;;;;;;;13.55;6.32;;;6.70;99.90;;;;;;5037844;28;20076;-57
2023/04/30 05:53:33;;;;;;;13.48;5.82;;;6.80;99.90;;;;;;5038371;28;20106;-57
2023/04/30 05:55:58;;;;;;;10.82;5.55;;;6.90;99.90;;;;;;5020040;28;20041;-57
2023/04/30 05:58:24;;;;;;;13.23;6.78;;;6.90;99.90;;;;;;5041960;28;20065;-57
2023/04/30 06:00:51;;;;;;;16.35;6.00;;;7.00;99.90;;;;;;5041675;28;20075;-57
2023/04/30 06:03:19;;;;;;;16.20;6.55;;;7.00;99.90;;;;;;5042135;28;20041;-57
2023/04/30 06:05:48;;;;;;;14.13;6.15;;;7.10;99.90;;;;;;5042249;28;20083;-57
2023/04/30 06:08:14;;;;;;;15.27;7.13;;;7.20;99.90;;;;;;5041779;28;20057;-58
2023/04/30 06:10:40;;;;;;;11.73;6.82;;;7.30;99.90;;;;;;5042300;28;20510;-57
2023/04/30 06:13:06;;;;;;;15.07;5.20;;;7.30;99.90;;;;;;5041598;28;20049;-57
2023/04/30 06:15:32;;;;;;;14.00;6.00;;;7.50;99.90;;;;;;5041897;28;20056;-57
2023/04/30 06:17:57;;;;;;;9.52;5.25;;;7.40;99.90;;;;;;5041820;28;20041;-57
2023/04/30 06:20:23;;;;;;;16.75;6.45;;;7.50;99.90;;;;;;5041831;28;20050;-57
2023/04/30 06:22:49;;;;;;;11.68;5.47;;;7.50;99.90;;;;;;5041639;28;20093;-57
2023/04/30 06:25:15;;;;;;;10.35;5.15;;;7.60;99.90;;;;;;5040986;28;20046;-57
2023/04/30 06:27:40;;;;;;;10.50;5.50;;;7.70;99.90;;;;;;5041873;28;20041;-56
2023/04/30 06:30:07;;;;;;;14.43;6.45;;;7.90;99.90;;;;;;5040997;28;20029;-57
2023/04/30 06:32:32;;;;;;;11.98;5.65;;;8.20;99.90;;;;;;5041743;28;20044;-57
2023/04/30 06:34:58;;;;;;;10.60;4.63;;;8.50;99.90;;;;;;5041494;28;20046;-57
2023/04/30 06:37:24;;;;;;;13.48;5.38;;;8.80;99.90;;;;;;5041851;28;20074;-58
2023/04/30 06:39:50;;;;;;;12.40;5.28;;;9.20;99.90;;;;;;5041528;28;20046;-57
2023/04/30 06:42:16;;;;;;;13.18;5.25;;;9.70;99.90;;;;;;5041031;28;20049;-56
2023/04/30 06:44:42;;;;;;;14.23;3.53;;;10.20;99.90;;;;;;5041022;28;20048;-57
2023/04/30 06:47:07;;;;;;;8.30;3.78;;;10.60;99.90;;;;;;5023066;28;20037;-58
2023/04/30 06:49:33;;;;;;;9.13;3.83;;;10.80;99.90;;;;;;5023895;28;20077;-58
2023/04/30 06:52:00;;;;;;;7.88;3.92;;;11.00;99.90;;;;;;5041117;28;20033;-56
2023/04/30 06:54:26;;;;;;;11.60;3.40;;;11.10;99.90;;;;;;5041203;28;20053;-57
2023/04/30 06:56:52;;;;;;;7.75;3.33;;;11.30;99.90;;;;;;5041426;28;20494;-57
2023/04/30 06:59:18;;;;;;;15.75;3.95;;;11.50;99.90;;;;;;5040395;28;20091;-57
2023/04/30 07:01:43;;;;;;;8.32;2.95;;;11.70;99.90;;;;;;5022954;28;20053;-57
2023/04/30 07:04:09;;;;;;;8.63;2.50;;;11.80;99.90;;;;;;5040475;28;20064;-57
2023/04/30 07:06:35;;;;;;;10.85;2.40;;;11.80;99.90;;;;;;5023569;28;20033;-56
2023/04/30 07:09:01;;;;;;;8.07;2.30;;;11.90;99.90;;;;;;5040640;28;20068;-56
2023/04/30 07:11:27;;;;;;;7.53;2.65;;;11.90;99.90;;;;;;5041392;28;20045;-57
2023/04/30 07:13:53;;;;;;;12.30;2.75;;;11.90;99.90;;;;;;5040456;28;20049;-56
2023/04/30 07:16:18;;;;;;;10.18;2.53;;;11.90;99.90;;;;;;5040500;28;20033;-57
2023/04/30 07:18:47;;;;;;;5.35;2.35;;;11.90;99.90;;;;;;5022906;28;20041;-61
2023/04/30 07:21:13;;;;;;;9.25;3.20;;;12.00;99.90;;;;;;5040269;28;20072;-57
2023/04/30 07:23:39;;;;;;;12.00;3.13;;;12.00;99.90;;;;;;5040773;28;20414;-57
2023/04/30 07:26:05;;;;;;;6.85;2.90;;;12.10;99.90;;;;;;5040351;28;20038;-56
2023/04/30 07:28:30;;;;;;;10.43;2.90;;;12.20;99.90;;;;;;5041031;28;20034;-56
2023/04/30 07:30:56;;;;;;;6.63;2.50;;;12.20;99.90;;;;;;5040064;28;20100;-56
2023/04/30 07:33:22;;;;;;;5.68;2.50;;;12.30;99.90;;;;;;5022348;28;20057;-57
2023/04/30 07:35:47;;;;;;;8.23;3.03;;;12.40;99.90;;;;;;5040339;28;20104;-57
2023/04/30 07:38:13;;;;;;;8.98;3.03;;;12.50;99.90;;;;;;5022169;28;20046;-57
2023/04/30 07:40:39;;;;;;;6.47;2.85;;;12.70;99.90;;;;;;5040308;28;20038;-57
2023/04/30 07:43:04;;;;;;;9.23;2.92;;;13.00;99.90;;;;;;5039631;28;20444;-56
2023/04/30 07:45:30;;;;;;;10.77;3.15;;;13.20;99.90;;;;;;5040321;28;20030;-57
2023/04/30 07:47:56;;;;;;;13.80;3.60;;;13.30;99.90;;;;;;5040214;28;20034;-56
2023/04/30 07:50:22;;;;;;;9.60;3.53;;;13.40;99.90;;;;;;5040047;28;20052;-56
2023/04/30 07:52:49;;;;;;;11.65;3.22;;;13.50;99.90;;;;;;5040224;28;20329;-56
2023/04/30 07:55:15;;;;;;;6.47;3.10;;;13.70;99.90;;;;;;5039435;28;20563;-57
2023/04/30 07:57:41;;;;;;;9.32;3.10;;;13.80;99.90;;;;;;5040147;28;20041;-56
2023/04/30 08:00:07;;;;;;;9.90;3.47;;;13.80;99.90;;;;;;5021312;28;20033;-56
2023/04/30 08:02:33;;;;;;;7.00;3.15;;;13.90;99.90;;;;;;5040354;28;20045;-57
2023/04/30 08:04:59;;;;;;;8.38;3.50;;;13.80;99.90;;;;;;5039801;28;20111;-57
2023/04/30 08:07:24;;;;;;;10.00;3.60;;;13.90;99.90;;;;;;5039985;28;20038;-56
2023/04/30 08:09:50;;;;;;;11.40;3.60;;;13.90;99.90;;;;;;5039987;28;20048;-56
2023/04/30 08:12:17;;;;;;;11.90;3.53;;;13.80;99.90;;;;;;5021364;28;20045;-56
2023/04/30 08:14:43;;;;;;;9.23;3.17;;;13.90;99.90;;;;;;5039290;28;20056;-57
2023/04/30 08:17:08;;;;;;;9.52;3.53;;;13.90;99.90;;;;;;5039178;28;20046;-57
2023/04/30 08:19:34;;;;;;;10.52;3.92;;;13.90;99.90;;;;;;5039354;28;20105;-56
2023/04/30 08:22:00;;;;;;;8.73;3.50;;;13.90;99.90;;;;;;5039411;28;20041;-56
2023/04/30 08:24:26;;;;;;;12.23;4.07;;;13.90;99.90;;;;;;5039340;28;20053;-56
2023/04/30 08:26:51;;;;;;;9.75;4.10;;;13.80;99.90;;;;;;5021922;28;20049;-56
2023/04/30 08:29:17;;;;;;;7.07;3.50;;;13.80;99.90;;;;;;5038822;28;20052;-57
2023/04/30 08:31:43;;;;;;;7.20;3.70;;;13.80;99.90;;;;;;5039269;28;20088;-56
2023/04/30 08:34:08;;;;;;;9.88;3.50;;;13.80;99.90;;;;;;5038473;28;20069;-57
2023/04/30 08:36:34;;;;;;;7.68;3.53;;;13.60;99.90;;;;;;5039734;28;20037;-56
2023/04/30 08:39:01;;;;;;;6.63;3.45;;;13.60;99.90;;;;;;5039116;28;20038;-56
2023/04/30 08:41:32;;;;;;;9.05;3.00;;;13.60;99.90;;;;;;5039769;28;20057;-56
2023/04/30 08:44:01;;;;;;;7.88;3.20;;;13.60;99.90;;;;;;5020970;28;20049;-56
2023/04/30 08:46:30;;;;;;;10.50;3.70;;;13.70;99.90;;;;;;5038614;28;20513;-56
2023/04/30 08:48:56;;;;;;;10.30;3.47;;;13.70;99.90;;;;;;5039184;28;20100;-56
2023/04/30 08:51:24;;;;;;;8.00;3.03;;;13.80;99.90;;;;;;5038599;28;20037;-57
2023/04/30 08:53:53;;;;;;;13.27;3.67;;;13.90;99.90;;;;;;5039259;28;20061;-56
2023/04/30 08:56:20;;;;;;;11.55;3.90;;;13.90;99.90;;;;;;5038631;28;20413;-56
2023/04/30 08:58:45;;;;;;;10.25;3.67;;;13.90;99.90;;;;;;5039034;28;20125;-56
2023/04/30 09:01:12;;;;;;;5.32;2.50;;;14.00;99.90;;;;;;5038579;28;20072;-57
2023/04/30 09:03:38;;;;;;;9.55;3.22;;;14.00;99.90;;;;;;5038226;28;20075;-56
2023/04/30 09:06:03;;;;;;;8.40;3.28;;;14.00;99.90;;;;;;5004513;28;20101;-57
2023/04/30 09:08:43;;;;;;;7.38;3.08;;;13.90;99.90;;;;;;5038266;28;20076;-56
2023/04/30 09:11:25;;;;;;;7.70;3.22;;;14.00;99.90;;;;;;5038934;28;20073;-56
2023/04/30 09:13:53;;;;;;;11.18;3.72;;;13.90;99.90;;;;;;5038373;28;20096;-56
2023/04/30 09:16:20;;;;;;;8.82;3.30;;;13.80;99.90;;;;;;5038520;28;20120;-56
2023/04/30 09:18:47;;;;;;;7.82;3.38;;;13.80;99.90;;;;;;5038792;28;20033;-56
2023/04/30 09:21:13;;;;;;;9.57;3.72;;;13.90;99.90;;;;;;5038445;28;20042;-57
2023/04/30 09:24:00;;;;;;;10.80;3.60;;;14.00;99.90;;;;;;5038770;28;20468;-57
2023/04/30 09:26:35;;;;;;;8.95;4.07;;;14.10;99.90;;;;;;5038607;28;20091;-56
2023/04/30 09:29:06;;;;;;;11.30;4.00;;;14.20;99.90;;;;;;5020437;28;20041;-57
2023/04/30 09:31:35;;;;;;;6.50;3.33;;;14.40;99.90;;;;;;5020636;28;20080;-57
2023/04/30 09:34:01;;;;;;;10.32;3.95;;;14.50;99.90;;;;;;5041979;28;20045;-57
2023/04/30 09:36:27;;;;;;;8.48;3.33;;;14.40;99.90;;;;;;5043084;28;20045;-56
2023/04/30 09:38:53;;;;;;;11.65;4.00;;;14.30;99.90;;;;;;5024586;28;20045;-56
2023/04/30 09:41:28;;;;;;;9.80;3.40;;;14.30;99.90;;;;;;5008731;28;20129;-56
2023/04/30 09:43:55;;;;;;;10.43;3.65;;;14.40;99.90;;;;;;5042381;28;20057;-56
2023/04/30 09:46:29;;;;;;;8.85;3.97;;;14.50;99.90;;;;;;5041890;28;20049;-56
2023/04/30 09:48:57;;;;;;;8.52;3.47;;;14.50;99.90;;;;;;5042482;28;20049;-56
2023/04/30 09:51:23;;;;;;;13.40;3.78;;;14.60;99.90;;;;;;5041957;28;20042;-57
2023/04/30 09:53:50;;;;;;;11.70;3.33;;;14.80;99.90;;;;;;5042431;28;20037;-56
2023/04/30 09:56:23;;;;;;;6.65;3.10;;;14.90;99.90;;;;;;5042299;28;20436;-57
2023/04/30 09:58:53;;;;;;;5.55;2.83;;;15.00;99.90;;;;;;5042022;28;20054;-56
2023/04/30 10:01:20;;;;;;;8.27;3.75;;;15.00;99.90;;;;;;5042044;28;20033;-56
2023/04/30 10:03:48;;;;;;;8.32;3.30;;;14.90;99.90;;;;;;5041738;28;20105;-56
2023/04/30 10:06:15;;;;;;;8.18;3.67;;;14.70;99.90;;;;;;5024405;28;20103;-56
2023/04/30 10:08:54;;;;;;;9.52;3.08;;;14.50;99.90;;;;;;5041643;28;20050;-56
2023/04/30 10:11:22;;;;;;;11.70;3.85;;;14.50;99.90;;;;;;5042387;28;20124;-56
2023/04/30 10:14:02;;;;;;;12.00;3.60;;;14.40;99.90;;;;;;5041742;28;20642;-57
2023/04/30 10:16:50;;;;;;;7.05;3.58;;;14.50;99.90;;;;;;5041500;28;20494;-56
2023/04/30 10:19:23;;;;;;;5.18;2.85;;;14.60;99.90;;;;;;5042084;28;20112;-56
2023/04/30 10:21:50;;;;;;;10.73;4.13;;;14.60;99.90;;;;;;5041491;28;20084;-56
2023/04/30 10:24:18;;;;;;;6.00;3.33;;;14.60;99.90;;;;;;5041815;28;20049;-57
2023/04/30 10:26:48;;;;;;;8.10;3.35;;;14.60;99.90;;;;;;5041936;28;20037;-56
2023/04/30 10:29:14;;;;;;;10.27;3.63;;;14.60;99.90;;;;;;5041068;28;20193;-57
2023/04/30 10:31:46;;;;;;;6.50;3.42;;;14.70;99.90;;;;;;5041335;28;20049;-56
2023/04/30 10:34:51;;;;;;;6.60;3.28;;;14.80;99.90;;;;;;5040843;28;20038;-56
2023/04/30 10:37:23;;;;;;;6.35;2.92;;;14.80;99.90;;;;;;5041076;28;20576;-56
2023/04/30 10:39:50;;;;;;;7.70;3.60;;;14.90;99.90;;;;;;5041644;28;20074;-56
2023/04/30 10:42:17;;;;;;;12.77;3.72;;;15.00;99.90;;;;;;5040963;28;20049;-56
2023/04/30 10:44:42;;;;;;;9.27;3.20;;;15.00;99.90;;;;;;5022656;28;20513;-57
2023/04/30 10:47:08;;;;;;;9.15;3.03;;;15.00;99.90;;;;;;5040738;28;20042;-55
2023/04/30 10:49:34;;;;;;;8.57;3.10;;;15.10;99.90;;;;;;5041882;28;20046;-57
2023/04/30 10:52:02;;;;;;;8.13;3.42;;;15.10;99.90;;;;;;5041081;28;20041;-56
2023/04/30 10:54:30;;;;;;;10.73;3.40;;;15.10;99.90;;;;;;5041040;28;20489;-56
2023/04/30 10:57:17;;;;;;;9.95;2.70;;;15.20;99.90;;;;;;5023456;28;20050;-56
2023/04/30 11:00:05;;;;;;;10.32;3.47;;;15.30;99.90;;;;;;5040626;28;20045;-56
2023/04/30 11:02:47;;;;;;;6.78;3.17;;;15.50;99.90;;;;;;5034876;28;20053;-57
2023/04/30 11:05:14;;;;;;;7.35;3.15;;;15.60;99.90;;;;;;5023555;28;20056;-57
2023/04/30 11:07:48;;;;;;;7.20;3.08;;;15.70;99.90;;;;;;5040426;28;20098;-56
2023/04/30 11:10:14;;;;;;;8.18;3.20;;;15.70;99.90;;;;;;5040796;28;20052;-56
2023/04/30 11:12:46;;;;;;;5.78;2.60;;;15.60;99.90;;;;;;5040490;28;20045;-57
2023/04/30 11:15:13;;;;;;;8.85;3.53;;;15.60;99.90;;;;;;5040875;28;20053;-56
2023/04/30 11:17:39;;;;;;;6.20;2.60;;;15.60;99.90;;;;;;5023021;28;20486;-57
2023/04/30 11:20:06;;;;;;;8.05;2.97;;;15.70;99.90;;;;;;5040681;28;20100;-56
2023/04/30 11:22:35;;;;;;;6.28;3.10;;;15.70;99.90;;;;;;5041019;28;20100;-56
2023/04/30 11:25:06;;;;;;;6.30;2.85;;;15.80;99.90;;;;;;5002576;28;20548;-56
2023/04/30 11:27:36;;;;;;;7.70;3.15;;;15.90;99.90;;;;;;5001497;28;20058;-57
2023/04/30 11:30:08;;;;;;;7.57;2.78;;;16.00;99.90;;;;;;5000495;28;20046;-56
2023/04/30 11:32:35;;;;;;;7.95;2.88;;;16.00;99.90;;;;;;5001286;28;20059;-56
2023/04/30 11:35:03;;;;;;;9.60;3.13;;;15.90;99.90;;;;;;5001085;28;20054;-56
2023/04/30 11:37:33;;;;;;;11.27;3.63;;;15.80;99.90;;;;;;5000992;28;20046;-57
2023/04/30 11:40:04;;;;;;;6.32;3.22;;;15.70;99.90;;;;;;5001081;28;20050;-56
2023/04/30 11:42:33;;;;;;;11.05;2.88;;;15.70;99.90;;;;;;5000561;28;20076;-56
2023/04/30 11:45:13;;;;;;;7.25;2.85;;;15.80;99.90;;;;;;4996261;28;20129;-57
2023/04/30 11:47:39;;;;;;;8.65;2.80;;;15.90;99.90;;;;;;4995631;28;20502;-56
2023/04/30 11:50:11;;;;;;;6.45;2.97;;;16.00;99.90;;;;;;4995003;28;20042;-56
2023/04/30 11:52:37;;;;;;;8.75;3.05;;;16.20;99.90;;;;;;4990391;28;20078;-57
2023/04/30 11:55:23;;;;;;;10.45;3.00;;;16.40;99.90;;;;;;4979857;28;20039;-56
2023/04/30 11:57:52;;;;;;;7.22;3.15;;;16.40;99.90;;;;;;4981380;28;20043;-56
2023/04/30 12:00:26;;;;;;;7.90;3.33;;;16.50;99.90;;;;;;4980809;28;20073;-57
2023/04/30 12:02:53;;;;;;;8.23;2.55;;;16.50;99.90;;;;;;4992456;28;20042;-56
2023/04/30 12:05:21;;;;;;;6.82;2.90;;;16.60;99.90;;;;;;4998842;28;20057;-56
2023/04/30 12:07:47;;;;;;;8.68;2.58;;;16.70;99.90;;;;;;4996507;28;20503;-57
2023/04/30 12:10:13;;;;;;;4.90;2.72;;;16.80;99.90;;;;;;4987724;28;20049;-57
2023/04/30 12:12:41;;;;;;;6.85;3.03;;;16.90;99.90;;;;;;4980233;28;20534;-57
2023/04/30 12:15:11;;;;;;;5.90;2.50;;;16.90;99.90;;;;;;4993727;28;20102;-57
2023/04/30 12:17:36;;;;;;;6.50;3.25;;;17.00;99.90;;;;;;4994202;28;20042;-56
2023/04/30 12:20:03;;;;;;;7.47;3.17;;;17.00;99.90;;;;;;5000338;28;20130;-56
2023/04/30 12:22:30;;;;;;;4.75;2.70;;;17.00;99.90;;;;;;4998215;28;20049;-57
2023/04/30 12:24:58;;;;;;;6.35;2.80;;;17.10;99.90;;;;;;5027999;28;20084;-56
2023/04/30 12:27:23;;;;;;;9.10;3.17;;;17.30;99.90;;;;;;5039722;28;20053;-57
2023/04/30 12:29:50;;;;;;;4.55;2.65;;;17.50;99.90;;;;;;5037489;28;20059;-57
2023/04/30 12:32:20;;;;;;;7.03;3.08;;;17.70;99.90;;;;;;5039561;28;20049;-56
2023/04/30 12:34:47;;;;;;;7.03;2.72;;;18.00;99.90;;;;;;5036140;28;20046;-57
2023/04/30 12:37:16;;;;;;;6.18;3.08;;;18.30;99.90;;;;;;5033057;28;20037;-57
2023/04/30 12:39:42;;;;;;;10.35;3.30;;;18.50;99.70;;;;;;5037538;28;20045;-58
2023/04/30 12:42:07;;;;;;;8.20;3.10;;;18.70;99.40;;;;;;5031871;28;20072;-57
2023/04/30 12:44:43;;;;;;;7.18;2.90;;;18.80;98.50;;;;;;5038821;28;20045;-57
2023/04/30 12:47:09;;;;;;;9.45;3.28;;;19.10;98.40;;;;;;5037299;28;20046;-57
2023/04/30 12:49:35;;;;;;;8.25;3.45;;;19.40;98.90;;;;;;5031293;28;20037;-57
2023/04/30 12:52:07;;;;;;;8.50;3.15;;;19.70;99.00;;;;;;5019418;28;20038;-57